createdAt,value
2019-01-18T00:05:00.663Z,5.87
2019-01-18T00:10:06.441Z,6.17
2019-01-18T00:15:10.845Z,6.93
2019-01-18T00:20:14.907Z,5.13
2019-01-18T00:25:19.359Z,5.67
2019-01-18T00:30:24.189Z,6.50
2019-01-18T00:35:28.261Z,6.63
2019-01-18T00:40:33.290Z,5.10
2019-01-18T00:45:38.096Z,5.90
2019-01-18T00:50:42.119Z,6.03
2019-01-18T00:55:46.148Z,6.00
2019-01-18T01:00:50.786Z,5.13
2019-01-18T01:05:55.086Z,5.40
2019-01-18T01:10:58.959Z,5.27
2019-01-18T01:16:04.286Z,4.83
2019-01-18T01:21:08.956Z,5.00
2019-01-18T01:26:12.983Z,5.50
2019-01-18T01:31:17.620Z,4.37
2019-01-18T01:36:21.663Z,4.40
2019-01-18T01:41:26.300Z,3.43
2019-01-18T01:46:30.263Z,3.80
2019-01-18T01:51:34.219Z,4.20
2019-01-18T01:56:38.439Z,3.70
2019-01-18T02:01:42.454Z,4.17
2019-01-18T02:06:46.523Z,4.10
2019-01-18T02:11:50.451Z,3.83
2019-01-18T02:16:54.832Z,4.20
2019-01-18T02:21:58.840Z,3.80
2019-01-18T02:27:02.852Z,3.70
2019-01-18T02:32:06.915Z,3.57
2019-01-18T02:37:10.844Z,3.73
2019-01-18T02:42:14.747Z,4.83
2019-01-18T02:47:19.191Z,3.57
2019-01-18T02:52:23.006Z,4.17
2019-01-18T02:57:27.793Z,3.37
2019-01-18T03:02:31.652Z,2.90
2019-01-18T03:07:35.544Z,2.90
2019-01-18T03:12:40.070Z,2.50
2019-01-18T03:17:44.069Z,2.80
2019-01-18T03:22:48.048Z,2.90
2019-01-18T03:27:52.074Z,3.00
2019-01-18T03:32:56.025Z,2.30
2019-01-18T03:38:00.038Z,2.03
2019-01-18T03:43:04.187Z,3.00
2019-01-18T03:48:08.134Z,1.87
2019-01-18T03:53:12.008Z,2.33
2019-01-18T03:58:16.495Z,2.10
2019-01-18T04:03:21.405Z,2.83
2019-01-18T04:08:25.343Z,2.30
2019-01-18T04:13:29.294Z,2.50
2019-01-18T04:18:33.996Z,2.43
2019-01-18T04:23:37.886Z,2.40
2019-01-18T04:28:41.759Z,2.27
2019-01-18T04:33:45.700Z,2.20
2019-01-18T04:38:49.565Z,2.40
2019-01-18T04:43:53.518Z,2.30
2019-01-18T04:48:57.550Z,2.20
2019-01-18T04:54:02.159Z,2.43
2019-01-18T04:59:06.049Z,2.83
2019-01-18T05:04:10.697Z,2.30
2019-01-18T05:09:14.584Z,1.97
2019-01-18T05:14:18.533Z,2.70
2019-01-18T05:19:22.400Z,2.23
2019-01-18T05:24:26.341Z,3.00
2019-01-18T05:29:30.554Z,2.40
2019-01-18T05:34:35.502Z,3.10
2019-01-18T05:39:39.453Z,3.10
2019-01-18T05:44:43.396Z,2.50
2019-01-18T05:49:47.253Z,2.50
2019-01-18T05:54:51.126Z,3.23
2019-01-18T05:59:55.303Z,3.60
2019-01-18T06:04:59.952Z,3.50
2019-01-18T06:10:05.319Z,2.93
2019-01-18T06:15:09.356Z,3.13
2019-01-18T06:20:14.115Z,3.03
2019-01-18T06:25:18.873Z,3.23
2019-01-18T06:30:22.915Z,3.63
2019-01-18T06:35:27.005Z,4.57
2019-01-18T06:40:31.111Z,3.40
2019-01-18T06:45:35.307Z,4.00
2019-01-18T06:50:39.183Z,4.83
2019-01-18T06:55:43.314Z,4.73
2019-01-18T07:00:47.276Z,4.70
2019-01-18T07:05:51.220Z,4.00
2019-01-18T07:10:55.103Z,4.57
2019-01-18T07:15:59.536Z,4.10
2019-01-18T07:21:04.539Z,4.70
2019-01-18T07:26:08.411Z,4.63
2019-01-18T07:31:15.206Z,4.30
2019-01-18T07:36:18.290Z,4.50
2019-01-18T07:41:23.635Z,5.00
2019-01-18T07:46:28.483Z,4.33
2019-01-18T07:51:32.575Z,4.10
2019-01-18T07:56:36.596Z,4.10
2019-01-18T08:01:40.536Z,5.10
2019-01-18T08:06:46.916Z,4.80
2019-01-18T08:11:50.938Z,4.43
2019-01-18T08:16:54.955Z,5.13
2019-01-18T08:22:00.963Z,5.90
2019-01-18T08:27:06.795Z,6.80
2019-01-18T08:32:14.152Z,6.30
2019-01-18T08:37:18.172Z,6.53
2019-01-18T08:42:26.867Z,6.30
2019-01-18T08:47:30.820Z,6.80
2019-01-18T08:52:35.276Z,6.40
2019-01-18T08:57:43.175Z,7.63
2019-01-18T09:02:47.207Z,7.37
2019-01-18T09:07:55.937Z,8.33
2019-01-18T09:12:59.959Z,8.03
2019-01-18T09:18:07.851Z,8.43
2019-01-18T09:23:11.875Z,9.07
2019-01-18T09:28:17.044Z,8.60
2019-01-18T09:33:23.453Z,9.30
2019-01-18T09:38:29.559Z,8.30
2019-01-18T09:43:34.908Z,8.17
2019-01-18T09:48:40.065Z,9.73
2019-01-18T09:53:44.636Z,8.00
2019-01-18T09:58:48.606Z,8.90
2019-01-18T10:03:56.936Z,9.47
2019-01-18T10:09:01.148Z,9.00
2019-01-18T10:14:11.121Z,7.73
2019-01-18T10:19:15.191Z,8.03
2019-01-18T10:24:19.244Z,7.57
2019-01-18T10:29:28.201Z,9.17
2019-01-18T10:34:32.785Z,8.53
2019-01-18T10:39:39.319Z,6.70
2019-01-18T10:44:43.199Z,6.90
2019-01-18T10:49:51.132Z,8.33
2019-01-18T10:54:55.000Z,7.87
2019-01-18T10:59:58.958Z,7.30
2019-01-18T11:05:03.239Z,6.77
2019-01-18T11:10:08.690Z,7.33
2019-01-18T11:15:14.655Z,6.40
2019-01-18T11:20:27.197Z,5.90
2019-01-18T11:25:33.368Z,6.10
2019-01-18T11:30:38.483Z,6.37
2019-01-18T11:35:43.371Z,6.30
2019-01-18T11:40:50.573Z,5.93
2019-01-18T11:45:54.673Z,4.60
2019-01-18T11:50:58.622Z,4.70
2019-01-18T11:56:02.563Z,4.70
2019-01-18T12:01:06.620Z,4.90
2019-01-18T12:06:10.648Z,4.40
2019-01-18T12:11:14.588Z,4.60
2019-01-18T12:16:18.605Z,5.03
2019-01-18T12:21:22.545Z,4.13
2019-01-18T12:26:26.550Z,4.27
2019-01-18T12:31:30.592Z,4.50
2019-01-18T12:36:34.540Z,4.30
2019-01-18T12:41:38.554Z,3.60
2019-01-18T12:46:42.580Z,3.77
2019-01-18T12:51:46.532Z,3.70
2019-01-18T12:56:50.475Z,4.00
2019-01-18T13:01:54.356Z,4.30
2019-01-18T13:06:58.335Z,3.80
2019-01-18T13:12:02.304Z,4.60
2019-01-18T13:17:06.183Z,4.30
2019-01-18T13:22:10.199Z,3.73
2019-01-18T13:27:14.215Z,4.20
2019-01-18T13:32:18.239Z,3.70
2019-01-18T13:37:23.389Z,4.00
2019-01-18T13:42:28.824Z,2.93
2019-01-18T13:47:35.075Z,3.43
2019-01-18T13:52:42.702Z,2.50
2019-01-18T13:57:50.292Z,2.20
2019-01-18T14:02:54.718Z,2.17
2019-01-18T14:07:59.163Z,1.90
2019-01-18T14:13:04.824Z,3.00
2019-01-18T14:18:08.810Z,1.50
2019-01-18T14:23:17.015Z,2.17
2019-01-18T14:28:23.411Z,1.77
2019-01-18T14:33:33.468Z,1.57
2019-01-18T14:38:37.432Z,1.40
2019-01-18T14:43:41.373Z,2.30
2019-01-18T14:48:46.559Z,2.37
2019-01-18T14:53:50.428Z,2.27
2019-01-18T14:58:58.400Z,2.30
2019-01-18T15:04:04.060Z,2.70
2019-01-18T15:09:10.767Z,3.20
2019-01-18T15:14:15.035Z,2.20
2019-01-18T15:19:22.228Z,2.53
2019-01-18T15:24:26.433Z,1.80
2019-01-18T15:29:30.383Z,2.17
2019-01-18T15:34:34.463Z,1.73
2019-01-18T15:39:38.537Z,2.20
2019-01-18T15:44:42.588Z,1.90
2019-01-18T15:49:46.682Z,2.67
2019-01-18T15:54:50.667Z,2.27
2019-01-18T15:59:54.715Z,1.93
2019-01-18T16:04:59.140Z,3.50
2019-01-18T16:10:03.296Z,2.00
2019-01-18T16:15:09.372Z,3.00
2019-01-18T16:20:15.439Z,2.17
2019-01-18T16:25:25.005Z,2.13
2019-01-18T16:30:28.933Z,2.30
2019-01-18T16:35:32.965Z,1.87
2019-01-18T16:40:36.975Z,2.30
2019-01-18T16:45:41.006Z,2.57
2019-01-18T16:50:45.073Z,3.20
2019-01-18T16:55:49.151Z,2.53
2019-01-18T17:00:55.091Z,2.70
2019-01-18T17:05:59.035Z,2.90
2019-01-18T17:11:02.980Z,2.50
2019-01-18T17:16:07.644Z,3.37
2019-01-18T17:21:14.866Z,3.30
2019-01-18T17:26:19.923Z,3.07
2019-01-18T17:31:23.961Z,3.70
2019-01-18T17:36:58.387Z,3.23
2019-01-18T17:42:52.502Z,3.23
2019-01-18T17:48:42.803Z,3.70
2019-01-18T17:54:07.045Z,3.03
2019-01-18T18:00:01.479Z,3.43
2019-01-18T18:05:47.072Z,4.17
2019-01-18T18:11:25.916Z,3.10
2019-01-18T18:17:13.812Z,3.10
2019-01-18T18:23:01.039Z,4.00
2019-01-18T18:28:41.350Z,4.07
2019-01-18T18:34:23.327Z,3.50
2019-01-18T18:40:20.514Z,4.50
2019-01-18T18:45:46.404Z,4.07
2019-01-18T18:51:26.170Z,4.47
2019-01-18T18:57:09.885Z,3.70
2019-01-18T19:02:46.699Z,4.50
2019-01-18T19:08:34.887Z,4.47
2019-01-18T19:14:25.083Z,3.93
2019-01-18T19:20:03.865Z,4.47
2019-01-18T19:25:57.155Z,4.47
2019-01-18T19:31:37.279Z,4.10
2019-01-18T19:37:13.892Z,4.67
2019-01-18T19:42:55.316Z,3.60
2019-01-18T19:48:12.817Z,5.10
2019-01-18T19:53:29.484Z,5.70
2019-01-18T19:59:02.575Z,6.20
2019-01-18T20:04:49.748Z,5.43
2019-01-18T20:10:37.987Z,5.77
2019-01-18T20:16:09.312Z,4.70
2019-01-18T20:22:15.739Z,5.03
2019-01-18T20:27:53.744Z,5.10
2019-01-18T20:33:34.784Z,5.40
2019-01-18T20:39:00.864Z,6.00
2019-01-18T20:45:11.520Z,4.70
2019-01-18T20:50:30.218Z,5.67
2019-01-18T20:55:56.547Z,7.40
2019-01-18T21:01:37.745Z,6.47
2019-01-18T21:07:22.537Z,6.27
2019-01-18T21:13:01.069Z,6.73
2019-01-18T21:18:33.236Z,6.10
2019-01-18T21:24:36.704Z,6.13
2019-01-18T21:30:08.092Z,4.90
2019-01-18T21:35:56.071Z,5.90
2019-01-18T21:41:55.441Z,6.07
2019-01-18T21:47:24.204Z,6.90
2019-01-18T21:53:08.256Z,6.47
2019-01-18T21:58:46.157Z,6.23
2019-01-18T22:04:04.311Z,7.07
2019-01-18T22:09:45.280Z,6.60
2019-01-18T22:15:11.328Z,6.83
2019-01-18T22:20:58.730Z,5.63
2019-01-18T22:26:38.048Z,6.63
2019-01-18T22:32:11.394Z,6.40
2019-01-18T22:37:32.143Z,5.70
2019-01-18T22:43:00.517Z,5.73
2019-01-18T22:48:28.324Z,5.90
2019-01-18T22:54:03.193Z,5.93
2019-01-18T22:59:48.705Z,5.57
2019-01-18T23:05:33.378Z,5.77
2019-01-18T23:10:53.968Z,4.67
2019-01-18T23:16:21.754Z,5.50
2019-01-18T23:21:49.061Z,5.50
2019-01-18T23:27:25.133Z,5.63
2019-01-18T23:33:25.492Z,5.00
2019-01-18T23:39:10.471Z,5.47
2019-01-18T23:44:46.135Z,4.90
2019-01-18T23:50:04.771Z,5.20
2019-01-18T23:55:55.167Z,5.33
